Time;durP1;ratioP1;P1;durP2;ratioP2;P2;SDS_P1;SDS_P2;PMS_P1;PMS_P2;Temp;Humidity;BMP_temperature;BMP_pressure;BME280_temperature;BME280_humidity;BME280_pressure;Samples;Min_cycle;Max_cycle;Signal;HPM_P1;HPM_P2
2022/10/10 00:00:13;;;;;;;9.25;4.47;;;11.70;99.90;;;;;;4100860;28;20191;-88
2022/10/10 00:02:13;;;;;;;9.90;3.90;;;11.60;99.90;;;;;;4085014;29;20255;-90
2022/10/10 00:04:14;;;;;;;14.15;4.82;;;11.70;99.90;;;;;;4100397;28;20191;-91
2022/10/10 00:06:16;;;;;;;16.70;4.20;;;11.70;99.90;;;;;;4084662;29;20159;-90
2022/10/10 00:08:16;;;;;;;15.20;4.18;;;11.70;99.90;;;;;;4084799;28;20234;-89
2022/10/10 00:10:17;;;;;;;11.27;3.58;;;11.60;99.90;;;;;;4100396;28;20211;-90
2022/10/10 00:12:18;;;;;;;10.40;4.05;;;11.60;99.90;;;;;;4084606;29;20206;-90
2022/10/10 00:14:18;;;;;;;8.52;3.88;;;11.60;99.90;;;;;;4100395;28;20164;-89
2022/10/10 00:16:21;;;;;;;8.52;3.88;;;11.60;99.90;;;;;;4084357;29;20179;-90
2022/10/10 00:18:21;;;;;;;9.50;3.72;;;11.60;99.90;;;;;;4100711;28;20258;-90
2022/10/10 00:20:22;;;;;;;12.90;4.03;;;11.60;99.90;;;;;;4100554;28;20203;-90
2022/10/10 00:22:23;;;;;;;14.48;4.03;;;11.60;99.90;;;;;;4083954;29;20180;-88
2022/10/10 00:24:23;;;;;;;10.40;4.10;;;11.60;99.90;;;;;;4084624;29;20180;-88
2022/10/10 00:26:24;;;;;;;6.60;3.53;;;11.60;99.90;;;;;;4100321;28;20174;-90
2022/10/10 00:28:25;;;;;;;9.50;3.78;;;11.60;99.90;;;;;;4084428;29;20206;-89
2022/10/10 00:30:26;;;;;;;13.77;3.97;;;11.50;99.90;;;;;;4084403;29;20188;-90
2022/10/10 00:32:26;;;;;;;10.75;3.13;;;11.60;99.90;;;;;;4100434;28;20183;-88
2022/10/10 00:34:27;;;;;;;7.30;3.15;;;11.60;99.90;;;;;;4084615;29;20624;-90
2022/10/10 00:36:28;;;;;;;8.60;3.50;;;11.80;99.90;;;;;;4100414;29;20199;-90
2022/10/10 00:38:28;;;;;;;8.10;3.10;;;11.70;99.90;;;;;;4084235;29;20628;-89
2022/10/10 00:40:30;;;;;;;6.78;3.10;;;11.70;99.90;;;;;;4100145;28;20600;-89
2022/10/10 00:42:30;;;;;;;9.05;3.30;;;11.70;99.90;;;;;;4084289;28;20184;-89
2022/10/10 00:44:31;;;;;;;6.32;3.30;;;11.70;99.90;;;;;;4100251;29;20655;-89
2022/10/10 00:46:32;;;;;;;12.75;2.90;;;11.70;99.90;;;;;;4084409;29;20246;-90
2022/10/10 00:48:43;;;;;;;7.65;2.95;;;11.60;99.90;;;;;;4084231;29;20175;-89
2022/10/10 00:50:53;;;;;;;7.10;2.83;;;11.60;99.90;;;;;;4084351;29;20615;-88
2022/10/10 00:52:55;;;;;;;9.50;2.88;;;11.60;99.90;;;;;;4084439;28;20174;-90
2022/10/10 00:54:55;;;;;;;8.95;3.35;;;11.60;99.90;;;;;;4084346;28;20167;-89
2022/10/10 00:57:07;;;;;;;9.40;3.10;;;11.50;99.90;;;;;;4084468;28;20187;-90
2022/10/10 00:59:11;;;;;;;6.85;2.88;;;11.50;99.90;;;;;;4084507;29;20674;-91
2022/10/10 01:01:11;;;;;;;7.75;2.95;;;11.50;99.90;;;;;;4084316;28;20286;-89
2022/10/10 01:03:12;;;;;;;9.35;3.20;;;11.50;99.90;;;;;;4084191;29;20183;-90
2022/10/10 01:05:13;;;;;;;6.68;2.50;;;11.60;99.90;;;;;;4100039;28;20186;-90
2022/10/10 01:07:24;;;;;;;7.90;2.97;;;11.60;99.90;;;;;;4084114;29;20660;-90
2022/10/10 01:09:26;;;;;;;7.93;2.63;;;11.50;99.90;;;;;;4083925;28;20191;-90
2022/10/10 01:11:27;;;;;;;7.47;2.58;;;11.60;99.90;;;;;;4083896;28;20286;-89
2022/10/10 01:13:45;;;;;;;8.52;3.08;;;11.70;99.90;;;;;;4100344;29;20187;-90
2022/10/10 01:16:05;;;;;;;12.25;2.90;;;11.70;99.90;;;;;;4084442;28;20167;-90
2022/10/10 01:18:31;;;;;;;5.57;2.55;;;11.70;99.90;;;;;;4084185;28;20190;-89
2022/10/10 01:20:54;;;;;;;6.25;2.95;;;11.70;99.90;;;;;;4084264;28;20240;-89
2022/10/10 01:23:16;;;;;;;5.70;2.58;;;11.60;99.90;;;;;;4084203;28;20182;-89
2022/10/10 01:26:01;;;;;;;8.40;3.05;;;11.60;99.90;;;;;;4084024;29;20202;-89
2022/10/10 01:28:34;;;;;;;9.57;3.30;;;11.50;99.90;;;;;;4079151;29;20294;-90
2022/10/10 01:30:35;;;;;;;8.10;2.70;;;11.50;99.90;;;;;;4085325;29;20211;-89
2022/10/10 01:32:57;;;;;;;5.97;2.50;;;11.50;99.90;;;;;;4084444;28;20176;-89
2022/10/10 01:35:06;;;;;;;9.15;3.05;;;11.40;99.90;;;;;;4086469;28;20215;-89
2022/10/10 01:37:18;;;;;;;8.65;3.00;;;11.40;99.90;;;;;;4102988;28;20218;-90
2022/10/10 01:39:40;;;;;;;12.15;2.83;;;11.40;99.90;;;;;;4086931;29;20207;-90
2022/10/10 01:41:53;;;;;;;8.00;2.58;;;11.40;99.90;;;;;;4086882;29;20175;-90
2022/10/10 01:43:57;;;;;;;10.75;2.80;;;11.40;99.90;;;;;;4087083;28;20178;-90
2022/10/10 01:45:58;;;;;;;8.80;2.78;;;11.50;99.90;;;;;;4087086;28;20175;-89
2022/10/10 01:48:05;;;;;;;8.73;3.15;;;11.50;99.90;;;;;;4102894;28;20202;-89
2022/10/10 01:50:13;;;;;;;10.35;3.28;;;11.50;99.90;;;;;;4086935;28;20199;-90
2022/10/10 01:52:22;;;;;;;8.55;2.95;;;11.50;99.90;;;;;;4086900;29;20598;-89
2022/10/10 01:54:47;;;;;;;10.30;3.15;;;11.50;99.90;;;;;;4087050;29;20259;-90
2022/10/10 01:57:00;;;;;;;5.55;2.65;;;11.50;99.90;;;;;;4102770;28;20183;-89
2022/10/10 01:59:23;;;;;;;8.35;3.10;;;11.50;99.90;;;;;;4086575;29;20572;-88
2022/10/10 02:01:42;;;;;;;8.60;2.53;;;11.50;99.90;;;;;;4118380;28;20202;-90
2022/10/10 02:03:47;;;;;;;8.40;2.75;;;11.50;99.90;;;;;;4086719;29;20931;-90
2022/10/10 02:06:02;;;;;;;10.18;2.60;;;11.50;99.90;;;;;;4086615;28;20215;-90
2022/10/10 02:08:14;;;;;;;6.32;2.78;;;11.50;99.90;;;;;;4102335;28;20285;-90
2022/10/10 02:10:20;;;;;;;8.60;2.70;;;11.50;99.90;;;;;;4086112;29;20214;-90
2022/10/10 02:12:22;;;;;;;7.85;2.88;;;11.50;99.90;;;;;;4086308;29;20179;-90
2022/10/10 02:14:29;;;;;;;9.00;2.95;;;11.40;99.90;;;;;;4086630;29;20642;-90
2022/10/10 02:16:36;;;;;;;8.93;3.30;;;11.40;99.90;;;;;;4086453;29;20179;-88
2022/10/10 02:18:37;;;;;;;9.13;3.33;;;11.50;99.90;;;;;;4103207;28;20206;-90
2022/10/10 02:20:40;;;;;;;7.70;2.63;;;11.40;99.90;;;;;;4102197;28;20250;-90
2022/10/10 02:22:43;;;;;;;10.40;2.70;;;11.40;99.90;;;;;;4086472;28;20254;-89
2022/10/10 02:24:44;;;;;;;8.05;3.10;;;11.30;99.90;;;;;;4086422;28;20338;-90
2022/10/10 02:26:51;;;;;;;11.23;3.03;;;11.40;99.90;;;;;;4102265;28;20187;-89
2022/10/10 02:29:09;;;;;;;7.65;3.08;;;11.30;99.90;;;;;;4102314;28;20194;-90
2022/10/10 02:31:14;;;;;;;5.30;2.75;;;11.40;99.90;;;;;;4101961;28;20202;-91
2022/10/10 02:33:24;;;;;;;14.55;2.72;;;11.30;99.90;;;;;;4086302;28;20179;-90
2022/10/10 02:35:30;;;;;;;8.43;2.92;;;11.30;99.90;;;;;;4086257;28;20625;-91
2022/10/10 02:37:32;;;;;;;8.73;2.60;;;11.30;99.90;;;;;;4086291;28;20266;-89
2022/10/10 02:39:37;;;;;;;11.13;3.33;;;11.30;99.90;;;;;;4086061;28;20207;-90
2022/10/10 02:41:40;;;;;;;6.55;2.95;;;11.20;99.90;;;;;;4102059;28;20230;-90
2022/10/10 02:43:41;;;;;;;10.70;2.90;;;11.20;99.90;;;;;;4086149;28;20179;-90
2022/10/10 02:45:42;;;;;;;5.10;2.75;;;11.20;99.90;;;;;;4100942;28;20186;-90
2022/10/10 02:47:44;;;;;;;8.70;3.00;;;11.20;99.90;;;;;;4086130;29;20268;-88
2022/10/10 02:49:46;;;;;;;9.07;3.17;;;11.30;99.90;;;;;;4086219;28;20224;-88
2022/10/10 02:51:47;;;;;;;10.68;3.05;;;11.30;99.90;;;;;;4086080;28;20190;-89
2022/10/10 02:53:47;;;;;;;9.88;3.30;;;11.30;99.90;;;;;;4102968;29;20171;-90
2022/10/10 02:55:48;;;;;;;6.82;3.13;;;11.30;99.90;;;;;;4086062;28;20196;-90
2022/10/10 02:57:49;;;;;;;7.60;2.42;;;11.30;99.90;;;;;;4085741;28;20517;-91
2022/10/10 02:59:50;;;;;;;11.27;3.35;;;11.30;99.90;;;;;;4101494;28;20206;-88
2022/10/10 03:01:50;;;;;;;8.55;3.13;;;11.20;99.90;;;;;;4085782;29;20553;-90
2022/10/10 03:03:51;;;;;;;8.30;3.22;;;11.20;99.90;;;;;;4085700;29;20211;-89
2022/10/10 03:05:52;;;;;;;9.40;3.20;;;11.20;99.90;;;;;;4101721;28;20167;-91
2022/10/10 03:07:52;;;;;;;9.23;3.50;;;11.20;99.90;;;;;;4085671;29;20179;-90
2022/10/10 03:09:53;;;;;;;12.00;3.50;;;11.10;99.90;;;;;;4101567;28;20576;-90
2022/10/10 03:11:54;;;;;;;9.10;3.20;;;11.20;99.90;;;;;;4101305;28;20166;-90
2022/10/10 03:13:54;;;;;;;9.18;3.58;;;11.10;99.90;;;;;;4085646;29;20179;-90
2022/10/10 03:15:55;;;;;;;7.78;2.72;;;11.10;99.90;;;;;;4085440;29;20183;-88
2022/10/10 03:17:56;;;;;;;9.17;3.03;;;11.10;99.90;;;;;;4085594;29;20274;-89
2022/10/10 03:19:56;;;;;;;10.25;3.13;;;11.00;99.90;;;;;;4101100;28;20225;-89
2022/10/10 03:21:57;;;;;;;7.65;2.80;;;11.00;99.90;;;;;;4101430;28;20171;-89
2022/10/10 03:23:58;;;;;;;8.13;3.42;;;11.10;99.90;;;;;;4101398;28;20175;-90
2022/10/10 03:25:58;;;;;;;14.68;3.22;;;11.10;99.90;;;;;;4085233;29;20631;-90
2022/10/10 03:27:59;;;;;;;8.73;3.17;;;11.10;99.90;;;;;;4085420;29;20184;-90
2022/10/10 03:30:00;;;;;;;11.93;2.95;;;11.10;99.90;;;;;;4085352;29;20667;-90
2022/10/10 03:32:00;;;;;;;11.88;3.22;;;11.10;99.90;;;;;;4101303;28;20171;-90
2022/10/10 03:34:01;;;;;;;12.23;3.80;;;11.10;99.90;;;;;;4085625;29;20180;-91
2022/10/10 03:36:02;;;;;;;11.63;3.60;;;11.00;99.90;;;;;;4085402;29;20186;-91
2022/10/10 03:38:03;;;;;;;10.00;3.47;;;11.00;99.90;;;;;;4085832;29;20176;-90
2022/10/10 03:40:04;;;;;;;11.10;3.67;;;11.00;99.90;;;;;;4101347;28;20215;-89
2022/10/10 03:42:05;;;;;;;9.57;3.13;;;11.00;99.90;;;;;;4085226;29;20180;-88
2022/10/10 03:44:06;;;;;;;11.02;3.40;;;11.00;99.90;;;;;;4085299;29;20186;-89
2022/10/10 03:46:06;;;;;;;5.85;2.88;;;11.10;99.90;;;;;;4085245;29;20190;-89
2022/10/10 03:48:07;;;;;;;8.13;2.70;;;11.10;99.90;;;;;;4085239;29;20186;-89
2022/10/10 03:50:08;;;;;;;9.10;2.97;;;11.10;99.90;;;;;;4101228;28;20222;-89
2022/10/10 03:52:09;;;;;;;9.10;3.17;;;11.10;99.90;;;;;;4100991;28;20198;-89
2022/10/10 03:54:10;;;;;;;5.90;3.38;;;11.20;99.90;;;;;;4101088;28;20233;-91
2022/10/10 03:56:11;;;;;;;14.48;2.97;;;11.10;99.90;;;;;;4084878;29;20168;-89
2022/10/10 03:58:11;;;;;;;7.80;3.28;;;11.10;99.90;;;;;;4100742;28;20186;-89
2022/10/10 04:00:12;;;;;;;6.75;2.90;;;11.10;99.90;;;;;;4084655;29;20302;-91
2022/10/10 04:02:13;;;;;;;10.98;3.35;;;11.00;99.90;;;;;;4100702;28;20242;-91
2022/10/10 04:04:14;;;;;;;14.18;3.17;;;11.10;99.90;;;;;;4085145;29;20648;-90
2022/10/10 04:06:14;;;;;;;11.40;3.42;;;11.10;99.90;;;;;;4084804;29;20629;-90
2022/10/10 04:08:16;;;;;;;10.90;3.30;;;11.10;99.90;;;;;;4101237;28;20179;-91
2022/10/10 04:10:16;;;;;;;10.63;3.33;;;11.10;99.90;;;;;;4084610;29;20823;-89
2022/10/10 04:12:17;;;;;;;9.23;3.28;;;11.10;99.90;;;;;;4084622;29;20186;-91
2022/10/10 04:14:18;;;;;;;8.55;3.25;;;11.20;99.90;;;;;;4100552;28;20254;-90
2022/10/10 04:16:18;;;;;;;5.82;3.13;;;11.20;99.90;;;;;;4100442;28;20552;-91
2022/10/10 04:18:19;;;;;;;15.68;3.65;;;11.20;99.90;;;;;;4084859;29;20179;-90
2022/10/10 04:20:20;;;;;;;10.90;3.30;;;11.10;99.90;;;;;;4100511;28;20286;-90
2022/10/10 04:22:21;;;;;;;8.43;3.60;;;11.10;99.90;;;;;;4084756;29;20172;-89
2022/10/10 04:24:21;;;;;;;8.93;3.15;;;11.10;99.90;;;;;;4084513;29;20624;-91
2022/10/10 04:26:22;;;;;;;12.13;3.17;;;11.20;99.90;;;;;;4100342;28;20179;-90
2022/10/10 04:28:23;;;;;;;8.98;3.33;;;11.20;99.90;;;;;;4100314;28;20547;-90
2022/10/10 04:30:23;;;;;;;8.38;3.50;;;11.20;99.90;;;;;;4084341;28;20335;-90
2022/10/10 04:32:24;;;;;;;8.90;3.22;;;11.20;99.90;;;;;;4084437;29;20230;-89
2022/10/10 04:34:25;;;;;;;7.43;3.22;;;11.10;99.90;;;;;;4084565;29;20271;-90
2022/10/10 04:36:26;;;;;;;14.20;3.30;;;11.10;99.90;;;;;;4100510;28;20187;-90
2022/10/10 04:38:27;;;;;;;10.20;3.17;;;11.10;99.90;;;;;;4084313;29;20267;-89
2022/10/10 04:40:28;;;;;;;12.63;3.35;;;11.10;99.90;;;;;;4084679;28;20588;-90
2022/10/10 04:42:29;;;;;;;9.05;3.60;;;11.10;99.90;;;;;;4100366;28;20214;-90
2022/10/10 04:44:29;;;;;;;5.85;3.00;;;11.10;99.90;;;;;;4084509;29;20182;-90
2022/10/10 04:46:30;;;;;;;12.90;3.15;;;11.10;99.90;;;;;;4100135;28;20257;-90
2022/10/10 04:48:30;;;;;;;13.13;3.50;;;11.10;99.90;;;;;;4084304;29;20175;-90
2022/10/10 04:50:32;;;;;;;10.05;3.35;;;11.00;99.90;;;;;;4084258;29;20687;-90
2022/10/10 04:52:32;;;;;;;14.65;3.58;;;11.00;99.90;;;;;;4084594;28;20179;-90
2022/10/10 04:54:33;;;;;;;6.47;2.75;;;11.10;99.90;;;;;;4100046;28;20171;-90
2022/10/10 04:56:34;;;;;;;8.90;3.25;;;11.00;99.90;;;;;;4084365;29;20187;-90
2022/10/10 04:58:35;;;;;;;16.65;3.58;;;11.10;99.90;;;;;;4100105;28;20175;-89
2022/10/10 05:00:37;;;;;;;8.43;3.13;;;11.10;99.90;;;;;;4099916;28;20222;-91
2022/10/10 05:02:38;;;;;;;8.73;3.37;;;11.10;99.90;;;;;;4084101;28;20167;-90
2022/10/10 05:04:39;;;;;;;7.37;3.10;;;11.10;99.90;;;;;;4100155;28;20683;-89
2022/10/10 05:06:40;;;;;;;9.00;3.10;;;11.10;99.90;;;;;;4084116;29;20175;-90
2022/10/10 05:08:40;;;;;;;16.65;3.03;;;11.10;99.90;;;;;;4100475;28;20175;-90
2022/10/10 05:10:41;;;;;;;10.05;3.50;;;11.10;99.90;;;;;;4087348;29;20283;-91
2022/10/10 05:12:42;;;;;;;9.48;3.05;;;11.10;99.90;;;;;;4103282;28;20674;-90
2022/10/10 05:14:42;;;;;;;8.80;4.00;;;11.00;99.90;;;;;;4103164;28;20238;-89
2022/10/10 05:16:43;;;;;;;10.67;3.80;;;11.00;99.90;;;;;;4087271;29;20171;-89
2022/10/10 05:18:44;;;;;;;10.55;3.65;;;11.00;99.90;;;;;;4087389;28;20219;-90
2022/10/10 05:20:46;;;;;;;9.63;3.92;;;10.90;99.90;;;;;;4087157;29;20214;-89
2022/10/10 05:22:47;;;;;;;10.82;3.30;;;10.90;99.90;;;;;;4103183;28;20175;-89
2022/10/10 05:24:47;;;;;;;14.43;3.70;;;10.90;99.90;;;;;;4103581;29;20277;-91
2022/10/10 05:26:48;;;;;;;13.77;3.47;;;11.00;99.90;;;;;;4087180;29;20171;-90
2022/10/10 05:28:49;;;;;;;9.45;3.00;;;11.00;99.90;;;;;;4087302;29;20222;-90
2022/10/10 05:30:51;;;;;;;11.50;3.43;;;11.00;99.90;;;;;;4087198;29;20278;-91
2022/10/10 05:32:51;;;;;;;8.48;3.45;;;10.90;99.90;;;;;;4087210;28;20187;-90
2022/10/10 05:34:52;;;;;;;8.02;4.05;;;10.80;99.90;;;;;;4103038;28;20651;-90
2022/10/10 05:36:55;;;;;;;12.70;3.50;;;10.90;99.90;;;;;;4102754;28;20539;-90
2022/10/10 05:38:56;;;;;;;6.22;3.30;;;10.80;99.90;;;;;;4087084;29;20239;-89
2022/10/10 05:40:57;;;;;;;12.00;3.30;;;10.80;99.90;;;;;;4102927;28;20595;-90
2022/10/10 05:42:58;;;;;;;9.40;3.63;;;10.90;99.90;;;;;;4087215;29;20266;-90
2022/10/10 05:44:58;;;;;;;12.88;3.40;;;10.90;99.90;;;;;;4087172;29;20171;-90
2022/10/10 05:46:59;;;;;;;10.25;3.60;;;10.90;99.90;;;;;;4103133;28;20265;-90
2022/10/10 05:48:59;;;;;;;10.07;3.38;;;10.90;99.90;;;;;;4086967;29;20180;-90
2022/10/10 05:51:00;;;;;;;12.13;3.90;;;10.90;99.90;;;;;;4086844;29;20227;-90
2022/10/10 05:53:01;;;;;;;10.13;4.00;;;10.90;99.90;;;;;;4086819;29;20175;-89
2022/10/10 05:55:02;;;;;;;9.15;3.78;;;11.00;99.90;;;;;;4086770;29;20176;-89
2022/10/10 05:57:03;;;;;;;10.37;3.60;;;11.00;99.90;;;;;;4102628;28;20179;-89
2022/10/10 05:59:03;;;;;;;13.18;3.65;;;11.00;99.90;;;;;;4086515;29;20195;-90
2022/10/10 06:01:05;;;;;;;7.95;3.83;;;11.00;99.90;;;;;;4103918;28;20206;-90
2022/10/10 06:03:07;;;;;;;9.90;3.50;;;11.00;99.90;;;;;;4105072;28;20175;-90
2022/10/10 06:05:08;;;;;;;9.32;3.65;;;11.10;99.90;;;;;;4086688;28;20604;-89
2022/10/10 06:07:09;;;;;;;16.08;3.97;;;11.10;99.90;;;;;;4102586;28;20171;-90
2022/10/10 06:09:09;;;;;;;11.38;4.00;;;11.00;99.90;;;;;;4086870;29;20675;-90
2022/10/10 06:11:10;;;;;;;11.95;3.95;;;11.00;99.90;;;;;;4102206;28;20198;-89
2022/10/10 06:13:13;;;;;;;9.15;3.47;;;11.00;99.90;;;;;;4102491;28;20805;-89
2022/10/10 06:15:14;;;;;;;10.00;3.55;;;10.90;99.90;;;;;;4102252;28;20178;-90
2022/10/10 06:17:14;;;;;;;19.48;3.72;;;10.90;99.90;;;;;;4086534;28;20180;-90
2022/10/10 06:19:16;;;;;;;14.30;3.53;;;11.00;99.90;;;;;;4086559;28;20219;-89
2022/10/10 06:21:17;;;;;;;13.32;3.13;;;11.00;99.90;;;;;;4084919;29;20195;-91
2022/10/10 06:23:18;;;;;;;12.80;2.85;;;11.10;99.90;;;;;;4086554;29;20202;-90
2022/10/10 06:25:19;;;;;;;7.93;3.40;;;11.10;99.90;;;;;;4102263;28;20179;-90
2022/10/10 06:27:20;;;;;;;11.75;3.72;;;11.40;99.90;;;;;;4102222;28;20183;-89
2022/10/10 06:29:21;;;;;;;13.48;3.40;;;11.70;99.90;;;;;;4086143;28;20278;-90
2022/10/10 06:31:22;;;;;;;10.45;3.30;;;12.10;99.90;;;;;;4101753;28;20203;-90
2022/10/10 06:33:22;;;;;;;14.23;3.05;;;12.40;99.90;;;;;;4086063;29;20168;-91
2022/10/10 06:35:24;;;;;;;9.25;3.08;;;12.60;99.90;;;;;;4102121;28;20182;-89
2022/10/10 06:37:24;;;;;;;15.30;3.05;;;12.60;99.90;;;;;;4101903;28;20333;-89
2022/10/10 06:39:25;;;;;;;10.30;2.83;;;12.50;99.90;;;;;;4086238;28;20215;-91
2022/10/10 06:41:26;;;;;;;10.05;2.97;;;12.40;99.90;;;;;;4086124;29;20204;-91
2022/10/10 06:43:27;;;;;;;10.93;3.95;;;12.40;99.90;;;;;;4102288;28;20188;-90
2022/10/10 06:45:27;;;;;;;9.98;3.10;;;12.60;99.90;;;;;;4102062;28;20691;-90
2022/10/10 06:47:29;;;;;;;8.52;3.13;;;13.00;99.90;;;;;;4086310;29;20179;-90
2022/10/10 06:49:29;;;;;;;7.60;2.80;;;13.90;99.90;;;;;;4102161;28;20631;-90
2022/10/10 06:51:31;;;;;;;9.02;2.92;;;14.70;99.90;;;;;;4101817;28;20195;-90
2022/10/10 06:53:32;;;;;;;12.00;3.10;;;15.20;99.90;;;;;;4085985;29;20249;-90
2022/10/10 06:55:33;;;;;;;11.98;2.65;;;15.30;99.90;;;;;;4102251;28;20404;-89
2022/10/10 06:57:33;;;;;;;5.95;2.70;;;15.00;99.90;;;;;;4085874;28;20175;-91
2022/10/10 06:59:34;;;;;;;13.27;2.85;;;15.00;99.90;;;;;;4101713;28;20214;-91
2022/10/10 07:01:35;;;;;;;13.20;2.92;;;14.90;99.90;;;;;;4101692;28;20179;-90
2022/10/10 07:03:35;;;;;;;8.45;2.75;;;14.90;99.90;;;;;;4085796;28;20179;-90
2022/10/10 07:05:36;;;;;;;11.98;3.15;;;14.70;99.90;;;;;;4085859;28;20183;-91
2022/10/10 07:07:40;;;;;;;9.50;2.88;;;14.80;99.90;;;;;;4085847;29;20175;-91
2022/10/10 07:09:41;;;;;;;9.35;2.92;;;14.90;99.90;;;;;;4085453;29;20211;-89
2022/10/10 07:11:44;;;;;;;6.93;2.60;;;14.80;99.90;;;;;;4085541;29;20190;-90
2022/10/10 07:13:45;;;;;;;15.38;2.80;;;14.80;99.90;;;;;;4101533;28;20179;-91
2022/10/10 07:15:46;;;;;;;11.10;3.17;;;14.60;99.90;;;;;;4085433;29;20215;-90
2022/10/10 07:17:46;;;;;;;12.27;2.92;;;14.40;99.90;;;;;;4101413;28;20187;-89
2022/10/10 07:19:47;;;;;;;14.60;3.00;;;14.10;99.90;;;;;;4085370;29;20207;-90
2022/10/10 07:21:47;;;;;;;6.13;2.72;;;14.00;99.90;;;;;;4101441;28;20178;-90
2022/10/10 07:23:48;;;;;;;12.52;3.00;;;14.00;99.90;;;;;;4085401;29;20179;-90
2022/10/10 07:25:49;;;;;;;9.00;3.22;;;14.20;99.90;;;;;;4101318;28;20175;-89
2022/10/10 07:27:50;;;;;;;15.43;3.33;;;14.20;99.90;;;;;;4085104;29;20211;-89
2022/10/10 07:29:51;;;;;;;11.80;2.83;;;14.30;99.90;;;;;;4101075;28;20178;-90
2022/10/10 07:31:51;;;;;;;8.90;3.10;;;14.50;99.90;;;;;;4085018;29;20632;-90
2022/10/10 07:33:52;;;;;;;7.25;2.80;;;14.60;99.90;;;;;;4101404;28;20195;-90
2022/10/10 07:35:53;;;;;;;15.88;3.08;;;14.70;99.90;;;;;;4085585;29;20183;-90
2022/10/10 07:37:57;;;;;;;8.70;2.80;;;14.90;99.90;;;;;;4085514;28;20172;-90
2022/10/10 07:39:58;;;;;;;10.38;3.13;;;15.00;99.90;;;;;;4085285;28;20219;-90
2022/10/10 07:41:58;;;;;;;8.95;2.85;;;15.10;99.90;;;;;;4101161;28;20178;-90
2022/10/10 07:43:59;;;;;;;9.73;3.08;;;14.60;99.90;;;;;;4085316;29;20217;-90
2022/10/10 07:46:00;;;;;;;8.82;2.90;;;14.50;99.90;;;;;;4085432;29;20652;-89
2022/10/10 07:48:01;;;;;;;8.55;3.03;;;14.70;99.90;;;;;;4101040;29;20203;-90
2022/10/10 07:50:03;;;;;;;7.20;2.90;;;14.80;99.90;;;;;;4084951;29;20225;-91
2022/10/10 07:52:04;;;;;;;16.55;2.72;;;14.80;99.90;;;;;;4085220;28;20266;-90
2022/10/10 07:54:05;;;;;;;19.00;2.75;;;15.30;99.90;;;;;;4085200;29;20663;-90
2022/10/10 07:56:07;;;;;;;13.80;3.20;;;15.50;99.90;;;;;;4085078;29;20183;-90
2022/10/10 07:58:10;;;;;;;10.63;2.90;;;15.60;99.90;;;;;;4085071;28;20171;-90
2022/10/10 08:00:11;;;;;;;9.23;2.55;;;15.90;99.90;;;;;;4084739;28;20242;-89
2022/10/10 08:02:14;;;;;;;9.30;2.78;;;16.20;99.90;;;;;;4085088;28;20262;-90
2022/10/10 08:04:15;;;;;;;7.03;2.42;;;16.50;99.90;;;;;;4085038;29;20207;-89
2022/10/10 08:06:16;;;;;;;9.30;2.63;;;16.60;99.90;;;;;;4084893;29;20689;-89
2022/10/10 08:08:17;;;;;;;11.30;2.40;;;17.10;99.90;;;;;;4084739;29;20242;-89
2022/10/10 08:10:18;;;;;;;7.55;2.50;;;17.60;99.90;;;;;;4100641;28;20738;-90
2022/10/10 08:12:18;;;;;;;11.02;2.65;;;17.80;99.90;;;;;;4084515;29;20675;-91
2022/10/10 08:14:19;;;;;;;8.27;2.50;;;18.40;99.90;;;;;;4084660;29;20190;-89
2022/10/10 08:16:20;;;;;;;6.68;2.28;;;19.00;99.90;;;;;;4084685;29;20211;-89
2022/10/10 08:18:21;;;;;;;9.82;2.47;;;19.90;99.90;;;;;;4100653;28;20189;-92
2022/10/10 08:20:21;;;;;;;10.13;2.65;;;20.20;99.90;;;;;;4084642;28;20219;-90
2022/10/10 08:22:22;;;;;;;7.32;1.98;;;19.80;99.90;;;;;;4100604;28;20691;-90
2022/10/10 08:24:23;;;;;;;7.55;2.53;;;19.50;99.90;;;;;;4084566;29;20259;-91
2022/10/10 08:26:23;;;;;;;9.93;2.50;;;19.00;99.90;;;;;;4084510;29;20176;-89
2022/10/10 08:28:25;;;;;;;7.72;2.35;;;18.90;99.90;;;;;;4084459;29;20179;-90
2022/10/10 08:30:25;;;;;;;13.23;2.53;;;19.20;99.90;;;;;;4084617;28;20307;-90
2022/10/10 08:32:26;;;;;;;11.45;2.47;;;19.00;99.90;;;;;;4100524;28;20183;-90
2022/10/10 08:34:27;;;;;;;8.00;2.67;;;18.50;99.90;;;;;;4100238;28;20234;-89
2022/10/10 08:36:27;;;;;;;10.02;2.63;;;18.10;99.90;;;;;;4084263;29;20176;-89
2022/10/10 08:38:28;;;;;;;10.63;2.50;;;18.00;99.90;;;;;;4084190;28;20258;-90
2022/10/10 08:40:29;;;;;;;12.18;3.08;;;18.40;99.90;;;;;;4084200;29;20294;-90
2022/10/10 08:42:39;;;;;;;9.43;2.47;;;18.90;99.90;;;;;;4084389;29;20179;-90
2022/10/10 08:44:47;;;;;;;9.00;2.30;;;19.60;99.90;;;;;;4083837;29;20175;-89
2022/10/10 08:47:04;;;;;;;10.30;2.95;;;19.70;99.90;;;;;;4100274;28;20174;-89
2022/10/10 08:49:20;;;;;;;6.25;2.00;;;20.40;99.90;;;;;;4099961;28;20171;-91
2022/10/10 08:51:32;;;;;;;6.75;2.28;;;20.90;99.90;;;;;;4099876;28;20199;-90
2022/10/10 08:53:42;;;;;;;10.73;2.28;;;21.20;99.90;;;;;;4100391;28;20703;-89
2022/10/10 08:55:44;;;;;;;5.25;2.25;;;21.00;99.90;;;;;;4084465;28;20660;-89
2022/10/10 08:57:58;;;;;;;7.97;2.40;;;21.20;99.90;;;;;;4084112;29;20600;-89
2022/10/10 09:00:11;;;;;;;8.90;2.20;;;20.60;99.90;;;;;;4084175;28;20274;-90
2022/10/10 09:02:34;;;;;;;10.32;2.83;;;20.00;99.90;;;;;;4084176;28;20266;-89
2022/10/10 09:04:35;;;;;;;13.70;2.80;;;19.70;99.90;;;;;;4081392;29;20608;-90
2022/10/10 09:06:43;;;;;;;9.93;2.53;;;19.50;99.90;;;;;;4100005;29;20167;-88
2022/10/10 09:08:52;;;;;;;11.40;3.00;;;18.90;99.90;;;;;;4100090;29;20178;-89
2022/10/10 09:11:04;;;;;;;7.18;2.83;;;18.70;99.90;;;;;;4101206;28;20265;-90
2022/10/10 09:13:16;;;;;;;10.57;3.20;;;18.30;99.90;;;;;;4100007;28;20182;-90
2022/10/10 09:15:57;;;;;;;10.45;2.85;;;17.90;99.90;;;;;;4100179;29;20186;-90
2022/10/10 09:18:04;;;;;;;14.18;3.10;;;18.30;99.90;;;;;;4083608;29;20195;-90
2022/10/10 09:20:23;;;;;;;6.05;2.53;;;19.20;99.90;;;;;;4084038;29;20309;-89
2022/10/10 09:22:28;;;;;;;8.30;3.05;;;20.00;99.90;;;;;;4084104;29;20195;-90
2022/10/10 09:24:37;;;;;;;15.77;2.78;;;20.30;99.90;;;;;;4100042;28;20263;-90
2022/10/10 09:26:46;;;;;;;9.98;2.88;;;21.00;99.90;;;;;;4083960;28;20171;-89
2022/10/10 09:29:03;;;;;;;8.18;2.75;;;21.30;99.90;;;;;;4083991;28;20251;-89
2022/10/10 09:31:13;;;;;;;8.27;2.97;;;21.60;99.90;;;;;;4099599;28;20293;-89
2022/10/10 09:33:22;;;;;;;12.52;3.33;;;21.80;99.90;;;;;;4083964;28;20175;-89
2022/10/10 09:35:28;;;;;;;11.20;3.13;;;22.10;99.90;;;;;;4099860;28;20183;-89
2022/10/10 09:37:39;;;;;;;9.40;3.05;;;22.30;99.90;;;;;;4083916;28;20175;-89
2022/10/10 09:40:02;;;;;;;8.90;3.25;;;21.60;99.90;;;;;;4083795;28;20297;-89
2022/10/10 09:42:12;;;;;;;10.57;3.55;;;21.30;99.90;;;;;;4083659;29;20183;-89
2022/10/10 09:44:14;;;;;;;10.00;3.33;;;20.90;99.90;;;;;;4083905;29;20187;-89
2022/10/10 09:46:14;;;;;;;9.82;3.35;;;20.60;99.90;;;;;;4099552;28;20585;-88
2022/10/10 09:48:15;;;;;;;16.42;3.72;;;20.00;99.90;;;;;;4099767;29;20222;-89
2022/10/10 09:50:16;;;;;;;14.98;3.97;;;19.90;99.90;;;;;;4099482;28;20195;-89
2022/10/10 09:52:29;;;;;;;10.18;3.83;;;19.90;99.90;;;;;;4100613;28;20258;-89
2022/10/10 09:54:30;;;;;;;10.85;3.75;;;20.00;99.90;;;;;;4099875;28;20618;-88
2022/10/10 09:56:39;;;;;;;14.25;3.38;;;19.90;99.90;;;;;;4086793;29;20176;-89
2022/10/10 09:58:42;;;;;;;7.40;2.92;;;19.60;99.90;;;;;;4086723;28;20660;-88
2022/10/10 10:00:43;;;;;;;12.32;3.83;;;19.50;99.90;;;;;;4086423;28;20199;-88
2022/10/10 10:03:02;;;;;;;13.40;3.65;;;19.40;99.90;;;;;;4102230;28;20229;-90
2022/10/10 10:05:22;;;;;;;11.25;3.67;;;19.40;99.90;;;;;;4086580;29;20533;-89
2022/10/10 10:07:30;;;;;;;10.50;4.00;;;19.30;99.90;;;;;;4086513;28;20184;-88
2022/10/10 10:09:31;;;;;;;13.95;4.00;;;19.30;99.90;;;;;;4087080;28;20194;-89
2022/10/10 10:11:38;;;;;;;15.38;3.75;;;19.50;99.90;;;;;;4102250;28;20200;-89
2022/10/10 10:13:38;;;;;;;9.07;2.95;;;19.60;99.90;;;;;;4086577;28;20239;-89
2022/10/10 10:15:47;;;;;;;19.17;3.70;;;19.70;99.90;;;;;;4102237;28;20175;-89
2022/10/10 10:18:26;;;;;;;18.80;4.32;;;19.70;99.90;;;;;;4102481;28;20549;-89
2022/10/10 10:20:32;;;;;;;13.07;3.67;;;19.80;99.90;;;;;;4083151;29;20656;-89
2022/10/10 10:22:39;;;;;;;17.67;4.25;;;19.30;99.90;;;;;;4102496;28;20174;-88
2022/10/10 10:24:40;;;;;;;17.70;3.58;;;19.50;99.90;;;;;;4102390;28;20175;-88
2022/10/10 10:26:40;;;;;;;13.32;3.83;;;19.40;99.90;;;;;;4086221;29;20226;-88
2022/10/10 10:28:42;;;;;;;13.13;3.55;;;19.40;99.90;;;;;;4102362;28;20226;-89
2022/10/10 10:30:43;;;;;;;12.32;3.72;;;19.50;99.90;;;;;;4086171;28;20207;-89
2022/10/10 10:33:01;;;;;;;15.73;3.72;;;19.60;99.90;;;;;;4086395;28;20167;-89
2022/10/10 10:35:33;;;;;;;11.13;3.75;;;19.60;99.90;;;;;;4086321;28;20641;-89
2022/10/10 10:37:55;;;;;;;15.02;4.28;;;19.70;99.90;;;;;;4086203;29;20564;-89
2022/10/10 10:40:32;;;;;;;11.82;3.58;;;19.90;99.90;;;;;;4101926;28;20254;-89
2022/10/10 10:42:41;;;;;;;15.45;3.20;;;20.00;99.90;;;;;;4101808;28;20175;-89